Deerfield, Kansas
Current Conditions -  °F | °C
As of 7:54 PM on Sunday 21 Dec 2014 (Local Time) from KGCK Reporting Station
Overcast Overcast  
Wind Chill: 32°   Ceiling: 11000
Heat Index: 39°   Visibility: 10mi
Dew Point: 36°   Wind: 12mph
Humidity: 89%   Direction: 150°SSE
Pressure: 29.56"   Gusts: NA
Location:  37.98°N, 101.13°W
Report Text: KGCK 220154Z 15010KT 10SM OVC110 04/02 A2956 RMK AO2 SLP018 T00390022
Loading
Personal Weather Stations






























Interactive Weather Map New forecast layout! Learn more

10-Day Weather Forecast

Advertisements
Track Severe Weather on mobile